Latest Weather Observations for Mandurah

IDW60901

Issued at 7:11 am WST Wednesday 22 February 2017 (issued every 10 minutes, with the page automatically refreshed every 10 minutes)

About weather observations | Map of Perth area stations | Latest observations for Perth area | Other Formats
Station Details ID: 009977 Name: MANDURAH Lat: -32.52 Lon: 115.71 Height: 3.0 m
Data from the previous 72 hours. | See also: Recent months at Mandurah
Date/Time
WST
Temp
°C
App
Temp
°C
Dew
Point
°C
Rel
Hum
%
Delta-T
°C
Wind Press
QNH
hPa
Press
MSL
hPa
Rain since
9am
mm
Dir  Spd
km/h
Gust
km/h
Spd
kts
Gust
kts
22/07:00am 15.7 14.0 8.4 62 3.7 ESE 7 11 4 6 1020.8 1020.8 0.0
22/06:30am 15.5 14.1 8.7 64 3.5 ESE 6 7 3 4 1020.5 1020.5 0.0
22/06:00am 15.4 13.9 8.4 63 3.5 ESE 6 9 3 5 1020.2 1020.2 0.0
22/05:30am 15.2 14.0 8.2 63 3.5 ESE 4 6 2 3 1020.0 1020.0 0.0
22/05:00am 15.2 13.9 7.7 61 3.7 ESE 4 7 2 4 1019.7 1019.7 0.0
22/04:30am 15.1 13.7 7.4 60 3.8 ESE 4 6 2 3 1019.4 1019.4 0.0
22/04:00am 15.0 13.6 7.3 60 3.8 ESE 4 6 2 3 1019.1 1019.1 0.0
22/03:30am 15.4 14.1 7.7 60 3.8 SE 4 6 2 3 1019.2 1019.2 0.0
22/03:00am 15.6 13.9 7.6 59 4.0 SE 6 9 3 5 1019.1 1019.1 0.0
22/02:30am 15.6 13.7 7.6 59 4.0 SE 7 9 4 5 1019.2 1019.2 0.0
22/02:00am 15.8 13.6 7.8 59 4.0 SE 9 13 5 7 1019.1 1019.1 0.0
22/01:30am 16.0 13.4 7.7 58 4.2 SE 11 17 6 9 1019.0 1019.0 0.0
22/01:00am 16.3 13.8 8.0 58 4.2 SE 11 17 6 9 1019.0 1019.0 0.0
22/12:30am 16.4 13.6 8.4 59 4.1 SE 13 20 7 11 1019.0 1019.0 0.0
22/12:00am 16.7 13.6 8.9 60 4.0 SE 15 20 8 11 1019.0 1019.0 0.0
 
Date/Time
WST
Temp
°C
App
Temp
°C
Dew
Point
°C
Rel
Hum
%
Delta-T
°C
Wind Press
QNH
hPa
Press
MSL
hPa
Rain since
9am
mm
Dir  Spd
km/h
Gust
km/h
Spd
kts
Gust
kts
21/11:30pm 16.9 14.0 8.3 57 4.4 SSE 13 20 7 11 1019.0 1019.0 0.0
21/11:00pm 16.9 13.6 8.1 56 4.5 SSE 15 22 8 12 1019.0 1019.0 0.0
21/10:30pm 17.1 13.8 8.0 55 4.6 SSE 15 24 8 13 1019.0 1019.0 0.0
21/10:00pm 17.6 13.9 7.9 53 4.9 SSE 17 26 9 14 1018.9 1018.9 0.0
21/09:30pm 18.0 14.2 7.7 51 5.2 S 17 28 9 15 1018.7 1018.7 0.0
21/09:00pm 18.5 15.2 8.2 51 5.3 S 15 24 8 13 1018.4 1018.4 0.0
21/08:30pm 18.4 15.3 8.9 54 4.9 SSW 15 33 8 18 1018.1 1018.1 0.0
21/08:00pm 18.3 14.9 9.1 55 4.8 SSW 17 28 9 15 1017.7 1017.7 0.0
21/07:30pm 18.4 15.3 8.9 54 4.9 SSW 15 24 8 13 1017.5 1017.5 0.0
21/07:00pm 18.6 14.6 8.3 51 5.3 SSW 19 32 10 17 1017.1 1017.1 0.0
21/06:30pm 18.8 14.6 7.6 48 5.7 SSW 19 30 10 16 1016.7 1016.7 0.0
21/06:00pm 18.9 13.9 8.0 49 5.6 SSW 24 39 13 21 1016.4 1016.4 0.0
21/05:30pm 19.3 14.0 8.6 50 5.6 SW 26 39 14 21 1016.2 1016.2 0.0
21/05:00pm 19.9 15.3 9.8 52 5.4 SSW 24 39 13 21 1015.7 1015.7 0.0
21/04:30pm 20.1 15.4 9.1 49 5.8 SSW 24 39 13 21 1015.7 1015.7 0.0
21/04:00pm 20.6 16.4 9.8 50 5.8 SSW 22 37 12 20 1015.7 1015.7 0.0
21/03:30pm 20.1 14.8 8.4 47 6.1 SSW 26 41 14 22 1015.7 1015.7 0.0
21/03:00pm 20.4 15.6 9.0 48 6.0 SW 24 35 13 19 1015.5 1015.5 0.0
21/02:30pm 21.4 16.4 8.0 42 7.0 SW 24 39 13 21 1015.6 1015.6 0.0
21/02:12pm 21.5 15.7 8.1 42 7.0 SW 28 50 15 27 1015.7 1015.7 0.0
21/02:00pm 21.0 15.0 6.9 40 7.2 SW 28 43 15 23 1015.8 1015.8 0.0
21/01:30pm 20.6 15.2 9.5 49 5.9 SW 28 41 15 22 1015.6 1015.6 0.0
21/01:00pm 21.1 16.1 9.4 47 6.2 SW 26 39 14 21 1015.5 1015.5 0.0
21/12:30pm 19.7 14.5 9.0 50 5.6 SW 26 37 14 20 1015.3 1015.3 0.0
21/12:00pm 20.3 15.4 8.3 46 6.2 SW 24 39 13 21 1015.3 1015.3 0.0
21/11:30am 20.3 14.4 7.3 43 6.6 SW 28 39 15 21 1015.2 1015.2 0.0
21/11:00am 20.0 14.6 8.0 46 6.2 SW 26 41 14 22 1015.1 1015.1 0.0
21/10:30am 19.7 14.9 9.0 50 5.6 SSW 24 37 13 20 1015.0 1015.0 0.0
21/10:13am 19.5 13.8 8.2 48 5.8 SW 28 46 15 25 1015.0 1015.0 0.0
21/10:00am 19.9 14.8 7.6 45 6.3 SW 24 46 13 25 1014.9 1014.9 0.0
21/09:30am 19.5 13.8 8.5 49 5.7 SW 28 44 15 24 1014.7 1014.7 0.0
21/09:00am 19.9 15.3 9.8 52 5.4 SW 24 43 13 23 1014.3 1014.3 2.2
21/08:30am 19.0 13.1 9.2 53 5.1 SW 30 46 16 25 1013.9 1013.9 2.2
21/08:00am 18.3 13.4 9.9 58 4.5 SSW 26 41 14 22 1013.3 1013.3 2.2
21/07:30am 18.2 13.7 11.5 65 3.7 SW 26 46 14 25 1012.7 1012.7 2.2
21/07:00am 18.3 14.2 12.7 70 3.1 SW 26 41 14 22 1012.2 1012.2 2.2
21/06:30am 17.3 15.1 14.4 83 1.7 SW 19 32 10 17 1011.8 1011.8 2.2
21/06:00am 16.7 13.0 13.8 83 1.6 SW 26 46 14 25 1011.7 1011.7 2.2
21/05:30am 17.1 13.6 14.4 84 1.5 WSW 26 39 14 21 1011.1 1011.1 2.2
21/05:00am 18.5 14.0 13.8 74 2.7 WSW 30 48 16 26 1011.2 1011.2 0.8
21/04:56am 19.1 14.6 13.7 71 3.1 W 30 48 16 26 1010.8 1010.8 0.0
21/04:30am 19.1 14.1 13.5 70 3.2 W 32 41 17 22 1010.7 1010.7 0.0
21/04:00am 19.1 15.6 12.1 64 3.9 W 22 37 12 20 1010.6 1010.6 0.0
21/03:30am 19.0 15.2 11.3 61 4.2 W 22 32 12 17 1010.6 1010.6 0.0
21/03:00am 18.8 15.2 10.6 59 4.4 W 20 30 11 16 1010.8 1010.8 0.0
21/02:30am 18.6 15.9 11.7 64 3.8 W 17 26 9 14 1011.2 1011.2 0.0
21/02:00am 18.6 15.8 11.4 63 3.9 W 17 28 9 15 1011.4 1011.4 0.0
21/01:30am 18.7 16.6 11.3 62 4.0 WSW 13 20 7 11 1011.7 1011.7 0.0
21/01:00am 18.8 16.8 11.6 63 4.0 WSW 13 24 7 13 1012.2 1012.2 0.0
21/12:30am 19.1 16.6 9.6 54 5.0 WSW 13 24 7 13 1012.3 1012.3 0.0
21/12:00am 18.9 16.0 9.7 55 4.9 SW 15 22 8 12 1012.4 1012.4 0.0
 
Date/Time
WST
Temp
°C
App
Temp
°C
Dew
Point
°C
Rel
Hum
%
Delta-T
°C
Wind Press
QNH
hPa
Press
MSL
hPa
Rain since
9am
mm
Dir  Spd
km/h
Gust
km/h
Spd
kts
Gust
kts
20/11:30pm 19.2 15.8 10.7 58 4.6 SW 19 28 10 15 1012.9 1012.9 0.0
20/11:00pm 19.1 16.6 10.9 59 4.5 SW 15 24 8 13 1013.0 1013.0 0.0
20/10:30pm 18.8 16.5 10.4 58 4.5 SW 13 20 7 11 1012.9 1012.9 0.0
20/10:00pm 19.1 17.7 10.9 59 4.5 SW 9 15 5 8 1013.0 1013.0 0.0
20/09:30pm 19.2 17.0 12.2 64 3.9 SSW 15 24 8 13 1012.9 1012.9 0.0
20/09:00pm 19.8 17.2 12.1 61 4.3 SW 17 28 9 15 1013.2 1013.2 0.0
20/08:30pm 19.6 16.2 12.6 64 3.9 SW 22 33 12 18 1013.2 1013.2 0.0
20/08:00pm 19.8 17.4 13.7 68 3.5 SW 19 30 10 16 1012.8 1012.8 0.0
20/07:30pm 19.9 17.6 14.0 69 3.4 SW 19 28 10 15 1012.2 1012.2 0.0
20/07:00pm 20.4 18.7 14.7 70 3.3 SW 17 26 9 14 1011.6 1011.6 0.0
20/06:30pm 20.6 18.8 14.5 68 3.6 SSW 17 24 9 13 1011.4 1011.4 0.0
20/06:00pm 20.8 18.3 15.1 70 3.4 SW 22 37 12 20 1011.1 1011.1 0.0
20/05:30pm 21.1 18.3 15.4 70 3.4 SW 24 37 13 20 1011.0 1011.0 0.0
20/05:00pm 21.7 18.5 15.3 67 3.8 SW 26 39 14 21 1011.0 1011.0 0.0
20/04:30pm 22.2 18.8 14.8 63 4.4 SW 26 35 14 19 1010.9 1010.9 0.0
20/04:00pm 22.6 19.6 13.7 57 5.2 SW 22 35 12 19 1010.9 1010.9 0.0
20/03:30pm 23.4 20.3 13.3 53 5.8 WSW 22 33 12 18 1010.9 1010.9 0.0
20/03:00pm 22.8 19.7 14.6 60 4.8 WSW 24 33 13 18 1011.1 1011.1 0.0
20/02:30pm 23.9 21.0 14.0 54 5.8 WSW 22 32 12 17 1011.4 1011.4 0.0
20/02:00pm 23.1 19.4 13.8 55 5.4 SW 26 33 14 18 1011.7 1011.7 0.0
20/01:30pm 24.0 20.4 13.2 50 6.3 WSW 24 35 13 19 1012.2 1012.2 0.0
20/01:00pm 23.9 21.0 12.8 49 6.4 SW 20 35 11 19 1012.3 1012.3 0.0
20/12:30pm 23.5 19.9 13.1 52 6.0 WSW 24 35 13 19 1012.4 1012.4 0.0
20/12:00pm 23.2 19.6 13.1 53 5.8 SW 24 39 13 21 1012.7 1012.7 0.0
20/11:30am 23.0 20.4 13.2 54 5.7 SSW 19 30 10 16 1013.2 1013.2 0.0
20/11:00am 23.6 21.6 13.8 54 5.7 SW 17 24 9 13 1013.4 1013.4 0.0
20/10:30am 22.5 20.7 13.3 56 5.3 SSW 15 22 8 12 1013.5 1013.5 0.0
20/10:00am 22.3 19.9 12.8 55 5.4 SSW 17 24 9 13 1013.5 1013.5 0.0
20/09:30am 21.6 18.8 12.5 56 5.2 S 19 28 10 15 1013.4 1013.4 0.0
20/09:00am 21.0 18.0 12.4 58 4.8 S 20 32 11 17 1013.3 1013.3 0.0
20/08:30am 20.4 17.9 13.4 64 4.0 S 19 28 10 15 1013.4 1013.4 0.0
20/08:00am 20.1 17.5 13.8 67 3.6 S 20 30 11 16 1013.2 1013.2 0.0
20/07:30am 19.3 16.2 13.3 68 3.4 SSE 22 33 12 18 1013.5 1013.5 0.0
20/07:00am 19.1 15.6 13.5 70 3.2 S 24 35 13 19 1013.6 1013.6 0.0
20/06:30am 19.1 16.4 14.6 75 2.6 S 22 33 12 18 1013.2 1013.2 0.0
20/06:00am 19.4 17.3 15.1 76 2.5 S 20 32 11 17 1013.0 1013.0 0.0
20/05:30am 19.7 17.3 15.4 76 2.5 S 22 35 12 19 1012.7 1012.7 0.0
20/05:00am 20.1 18.4 16.3 79 2.3 S 20 30 11 16 1012.4 1012.4 0.0
20/04:30am 20.5 19.2 16.7 79 2.3 S 19 28 10 15 1012.2 1012.2 0.0
20/04:00am 20.7 19.5 17.1 80 2.2 SSW 19 30 10 16 1011.9 1011.9 0.0
20/03:30am 21.2 21.8 17.8 81 2.1 SSW 11 19 6 10 1012.0 1012.0 0.0
20/03:00am 21.3 22.1 18.1 82 2.0 SSW 11 19 6 10 1011.9 1011.9 0.0
20/02:30am 21.5 23.1 18.3 82 2.0 SSW 7 13 4 7 1011.8 1011.8 0.0
20/02:00am 21.6 23.1 18.0 80 2.2 SSW 7 13 4 7 1011.9 1011.9 0.0
20/01:30am 21.6 21.8 17.6 78 2.5 S 13 22 7 12 1012.0 1012.0 0.0
20/01:00am 21.6 21.2 18.0 80 2.2 SSW 17 24 9 13 1012.1 1012.1 0.0
20/12:30am 21.9 21.7 17.5 76 2.7 SSW 15 22 8 12 1012.3 1012.3 0.0
20/12:00am 22.2 21.4 17.1 73 3.1 SSW 17 24 9 13 1012.6 1012.6 0.0
 
Date/Time
WST
Temp
°C
App
Temp
°C
Dew
Point
°C
Rel
Hum
%
Delta-T
°C
Wind Press
QNH
hPa
Press
MSL
hPa
Rain since
9am
mm
Dir  Spd
km/h
Gust
km/h
Spd
kts
Gust
kts
19/11:30pm 22.8 22.7 17.0 70 3.6 SSW 13 20 7 11 1012.7 1012.7 0.0
19/11:00pm 23.2 23.9 17.0 68 3.8 SSW 9 19 5 10 1012.5 1012.5 0.0
19/10:30pm 23.4 24.2 17.2 68 3.8 SSW 9 15 5 8 1012.6 1012.6 0.0
19/10:00pm 23.5 23.4 17.0 67 4.0 SSW 13 17 7 9 1012.7 1012.7 0.0
19/09:30pm 23.8 24.4 16.8 65 4.3 SSW 9 15 5 8 1013.1 1013.1 0.0
19/09:00pm 24.0 24.0 16.3 62 4.7 S 11 19 6 10 1012.7 1012.7 0.0
19/08:30pm 24.2 24.0 15.7 59 5.1 SSW 11 20 6 11 1012.6 1012.6 0.0
19/08:00pm 24.7 23.4 14.8 54 5.9 SSW 15 22 8 12 1012.1 1012.1 0.0
19/07:30pm 25.9 24.2 13.7 47 7.2 SSW 15 24 8 13 1011.9 1011.9 0.0
19/07:00pm 26.7 25.2 14.1 46 7.5 SSW 15 22 8 12 1011.6 1011.6 0.0
19/06:30pm 27.8 26.4 14.4 43 8.0 SSW 15 24 8 13 1011.2 1011.2 0.0
19/06:00pm 29.6 28.8 15.0 41 8.9 S 13 19 7 10 1011.0 1011.0 0.0
19/05:30pm 29.9 28.1 14.4 38 9.4 S 17 26 9 14 1010.9 1010.9 0.0
19/05:00pm 29.7 27.6 16.1 43 8.5 SW 22 32 12 17 1011.0 1011.0 0.0
19/04:30pm 31.1 30.2 15.9 40 9.5 WSW 15 24 8 13 1011.3 1011.3 0.0
19/04:00pm 32.0 31.6 17.1 41 9.5 WSW 15 22 8 12 1011.4 1011.4 0.0
19/03:30pm 32.4 32.3 17.8 41 9.4 WSW 15 22 8 12 1011.5 1011.5 0.0
19/03:00pm 31.4 30.6 16.2 40 9.5 W 15 22 8 12 1011.8 1011.8 0.0
19/02:30pm 30.3 32.0 18.4 49 7.7 NW 7 13 4 7 1012.1 1012.1 0.0
19/02:00pm 31.6 31.3 16.4 40 9.5 WNW 13 17 7 9 1012.4 1012.4 0.0
19/01:30pm 30.7 31.0 15.9 40 9.2 WNW 9 11 5 6 1012.5 1012.5 0.0
19/01:00pm 31.0 32.2 17.3 43 8.7 NW 7 9 4 5 1012.6 1012.6 0.0
19/12:30pm 30.8 31.1 17.1 43 8.7 WNW 11 13 6 7 1012.8 1012.8 0.0
19/12:00pm 30.4 32.0 18.2 48 7.8 NW 7 11 4 6 1012.8 1012.8 0.0
19/11:30am 29.8 30.3 16.6 45 8.3 NW 9 13 5 7 1013.2 1013.2 0.0
19/11:00am 29.9 31.3 17.7 48 7.8 NNW 7 9 4 5 1013.8 1013.8 0.0
19/10:30am 28.3 28.2 16.9 50 7.1 N 13 17 7 9 1014.1 1014.1 0.0
19/10:00am 28.9 29.2 16.1 46 7.9 N 9 15 5 8 1014.1 1014.1 0.0
19/09:30am 28.9 28.2 15.4 44 8.3 NNE 13 17 7 9 1014.3 1014.3 0.0
19/09:00am 27.9 26.1 14.5 44 8.1 NE 17 20 9 11 1014.4 1014.4 0.0
19/08:30am 27.1 24.0 12.3 39 8.6 NE 20 28 11 15 1014.6 1014.6 0.0
19/08:00am 26.7 24.4 11.6 39 8.6 NE 15 20 8 11 1014.5 1014.5 0.0
19/07:30am 25.4 23.6 10.8 40 8.2 NE 11 17 6 9 1014.6 1014.6 0.0

Latest Capital City Observations: Canberra | Sydney | Melbourne | Brisbane | Adelaide | Perth | Hobart | Darwin

Other Formats:

Comma delimited format used in spreadsheet applications
http://www.bom.gov.au/fwo/IDW60901/IDW60901.94605.axf

JavaScript Object Notation format (JSON) in row-major order
http://www.bom.gov.au/fwo/IDW60901/IDW60901.94605.json